createdAt,value
2019-01-23T00:00:58.661Z,-2.40
2019-01-23T00:03:28.421Z,-2.40
2019-01-23T00:05:57.803Z,-2.30
2019-01-23T00:08:27.272Z,-2.40
2019-01-23T00:10:57.018Z,-2.40
2019-01-23T00:13:26.480Z,-2.40
2019-01-23T00:15:55.851Z,-2.30
2019-01-23T00:18:25.661Z,-2.30
2019-01-23T00:20:55.017Z,-2.30
2019-01-23T00:23:24.760Z,-2.30
2019-01-23T00:25:54.213Z,-2.30
2019-01-23T00:28:23.668Z,-2.30
2019-01-23T00:30:53.031Z,-2.30
2019-01-23T00:33:22.421Z,-2.30
2019-01-23T00:35:51.788Z,-2.30
2019-01-23T00:38:21.468Z,-2.30
2019-01-23T00:40:50.874Z,-2.30
2019-01-23T00:43:20.301Z,-2.20
2019-01-23T00:45:49.688Z,-2.30
2019-01-23T00:48:19.419Z,-2.20
2019-01-23T00:50:49.281Z,-2.20
2019-01-23T00:53:18.668Z,-2.20
2019-01-23T00:55:48.074Z,-2.20
2019-01-23T00:58:17.437Z,-2.20
2019-01-23T01:00:46.889Z,-2.10
2019-01-23T01:03:16.331Z,-2.10
2019-01-23T01:05:45.785Z,-2.10
2019-01-23T01:08:15.233Z,-2.10
2019-01-23T01:10:44.964Z,-2.10
2019-01-23T01:13:14.330Z,-2.10
2019-01-23T01:15:43.820Z,-2.10
2019-01-23T01:18:13.176Z,-2.10
2019-01-23T01:20:42.581Z,-2.10
2019-01-23T01:23:12.260Z,-2.10
2019-01-23T01:25:42.016Z,-2.10
2019-01-23T01:28:11.384Z,-2.10
2019-01-23T01:30:40.861Z,-2.10
2019-01-23T01:33:10.301Z,-2.10
2019-01-23T01:35:39.759Z,-2.10
2019-01-23T01:38:09.125Z,-2.10
2019-01-23T01:40:38.512Z,-2.10
2019-01-23T01:43:07.881Z,-2.10
2019-01-23T01:45:37.343Z,-2.10
2019-01-23T01:48:07.143Z,-2.00
2019-01-23T01:50:36.637Z,-2.10
2019-01-23T01:53:06.112Z,-2.10
2019-01-23T01:55:35.559Z,-2.10
2019-01-23T01:58:05.114Z,-2.10
2019-01-23T02:00:34.875Z,-2.10
2019-01-23T02:03:04.438Z,-2.10
2019-01-23T02:05:33.872Z,-2.00
2019-01-23T02:08:03.339Z,-2.10
2019-01-23T02:10:32.776Z,-2.10
2019-01-23T02:13:02.240Z,-2.10
2019-01-23T02:15:31.929Z,-2.10
2019-01-23T02:18:01.321Z,-2.10
2019-01-23T02:20:30.688Z,-2.10
2019-01-23T02:23:00.525Z,-2.10
2019-01-23T02:25:29.989Z,-2.10
2019-01-23T02:27:59.382Z,-2.20
2019-01-23T02:30:28.813Z,-2.20
2019-01-23T02:32:58.221Z,-2.20
2019-01-23T02:35:27.669Z,-2.20
2019-01-23T02:37:57.124Z,-2.20
2019-01-23T02:40:26.855Z,-2.20
2019-01-23T02:42:56.245Z,-2.10
2019-01-23T02:45:25.688Z,-2.10
2019-01-23T02:47:55.162Z,-2.10
2019-01-23T02:50:24.618Z,-2.10
2019-01-23T02:52:54.285Z,-2.10
2019-01-23T02:55:23.659Z,-2.10
2019-01-23T02:57:53.889Z,-2.10
2019-01-23T03:00:23.252Z,-2.10
2019-01-23T03:02:52.736Z,-2.10
2019-01-23T03:05:22.561Z,-2.00
2019-01-23T03:07:51.934Z,-2.10
2019-01-23T03:10:22.204Z,-2.00
2019-01-23T03:12:51.580Z,-2.10
2019-01-23T03:15:21.114Z,-2.10
2019-01-23T03:17:50.549Z,-2.00
2019-01-23T03:20:20.546Z,-2.00
2019-01-23T03:22:50.294Z,-2.00
2019-01-23T03:25:19.691Z,-2.00
2019-01-23T03:27:49.281Z,-1.90
2019-01-23T03:30:20.754Z,-2.00
2019-01-23T03:32:50.430Z,-2.00
2019-01-23T03:35:20.177Z,-2.00
2019-01-23T03:37:49.603Z,-2.00
2019-01-23T03:40:20.820Z,-1.90
2019-01-23T03:42:50.186Z,-1.90
2019-01-23T03:45:19.777Z,-1.90
2019-01-23T03:47:49.240Z,-1.90
2019-01-23T03:50:20.132Z,-2.00
2019-01-23T03:52:49.894Z,-1.90
2019-01-23T03:55:19.832Z,-1.90
2019-01-23T03:57:49.219Z,-2.00
2019-01-23T04:00:20.553Z,-1.90
2019-01-23T04:02:51.195Z,-2.00
2019-01-23T04:05:20.567Z,-1.90
2019-01-23T04:07:50.066Z,-1.90
2019-01-23T04:10:20.220Z,-2.00
2019-01-23T04:12:50.432Z,-2.00
2019-01-23T04:15:19.889Z,-2.00
2019-01-23T04:17:49.278Z,-2.00
2019-01-23T04:20:20.987Z,-2.00
2019-01-23T04:22:50.457Z,-2.00
2019-01-23T04:25:20.316Z,-2.00
2019-01-23T04:27:49.711Z,-2.00
2019-01-23T04:30:28.296Z,-2.00
2019-01-23T04:32:58.048Z,-2.00
2019-01-23T04:35:27.416Z,-2.00
2019-01-23T04:37:57.213Z,-2.10
2019-01-23T04:40:26.920Z,-2.10
2019-01-23T04:42:56.306Z,-2.10
2019-01-23T04:45:25.812Z,-2.10
2019-01-23T04:47:55.497Z,-2.10
2019-01-23T04:50:24.937Z,-2.10
2019-01-23T04:53:02.849Z,-2.00
2019-01-23T04:55:32.831Z,-2.00
2019-01-23T04:58:02.278Z,-2.00
2019-01-23T05:00:32.075Z,-2.00
2019-01-23T05:03:01.800Z,-2.00
2019-01-23T05:05:31.197Z,-2.10
2019-01-23T05:08:01.056Z,-2.00
2019-01-23T05:10:30.771Z,-2.00
2019-01-23T05:13:00.211Z,-2.00
2019-01-23T05:15:30.089Z,-2.00
2019-01-23T05:18:00.021Z,-2.00
2019-01-23T05:20:29.494Z,-2.00
2019-01-23T05:22:59.094Z,-2.00
2019-01-23T05:25:28.485Z,-2.00
2019-01-23T05:27:57.940Z,-1.90
2019-01-23T05:30:27.840Z,-2.00
2019-01-23T05:32:57.213Z,-2.10
2019-01-23T05:35:27.065Z,-2.10
2019-01-23T05:37:56.505Z,-2.00
2019-01-23T05:40:26.270Z,-2.10
2019-01-23T05:42:55.713Z,-2.10
2019-01-23T05:45:25.590Z,-2.10
2019-01-23T05:47:55.123Z,-2.10
2019-01-23T05:50:24.854Z,-2.00
2019-01-23T05:52:54.835Z,-2.10
2019-01-23T05:55:24.233Z,-2.10
2019-01-23T05:57:53.942Z,-2.00
2019-01-23T06:00:23.906Z,-2.10
2019-01-23T06:02:53.427Z,-2.10
2019-01-23T06:05:23.076Z,-2.10
2019-01-23T06:07:52.882Z,-2.10
2019-01-23T06:10:22.688Z,-2.10
2019-01-23T06:12:52.081Z,-2.00
2019-01-23T06:15:21.899Z,-2.10
2019-01-23T06:17:51.343Z,-2.10
2019-01-23T06:20:20.953Z,-2.10
2019-01-23T06:22:50.432Z,-2.10
2019-01-23T06:25:20.147Z,-2.10
2019-01-23T06:27:49.613Z,-2.10
2019-01-23T06:30:21.409Z,-2.10
2019-01-23T06:32:51.105Z,-2.10
2019-01-23T06:35:20.638Z,-2.10
2019-01-23T06:37:50.112Z,-2.10
2019-01-23T06:40:20.037Z,-2.10
2019-01-23T06:42:49.512Z,-2.00
2019-01-23T06:45:19.489Z,-2.00
2019-01-23T06:47:49.840Z,-2.10
2019-01-23T06:50:20.703Z,-2.10
2019-01-23T06:52:50.833Z,-2.10
2019-01-23T06:55:20.422Z,-2.00
2019-01-23T06:57:49.906Z,-2.10
2019-01-23T07:00:24.766Z,-2.10
2019-01-23T07:02:54.698Z,-2.10
2019-01-23T07:05:24.816Z,-2.00
2019-01-23T07:07:54.336Z,-2.00
2019-01-23T07:10:26.014Z,-2.00
2019-01-23T07:12:55.488Z,-2.00
2019-01-23T07:15:24.870Z,-2.00
2019-01-23T07:17:54.317Z,-2.00
2019-01-23T07:20:27.872Z,-2.00
2019-01-23T07:22:57.306Z,-2.00
2019-01-23T07:25:27.823Z,-2.00
2019-01-23T07:27:57.284Z,-1.90
2019-01-23T07:30:32.178Z,-1.90
2019-01-23T07:33:01.969Z,-2.00
2019-01-23T07:35:31.378Z,-2.00
2019-01-23T07:38:00.834Z,-2.10
2019-01-23T07:40:30.298Z,-2.10
2019-01-23T07:43:00.099Z,-2.10
2019-01-23T07:45:29.919Z,-2.10
2019-01-23T07:47:59.312Z,-2.20
2019-01-23T07:50:28.725Z,-2.20
2019-01-23T07:52:58.336Z,-2.20
2019-01-23T07:55:27.755Z,-2.10
2019-01-23T07:57:57.216Z,-2.20
2019-01-23T08:00:31.616Z,-2.20
2019-01-23T08:02:58.644Z,-2.20
2019-01-23T08:05:28.229Z,-2.20
2019-01-23T08:07:57.661Z,-2.20
2019-01-23T08:10:27.087Z,-2.20
2019-01-23T08:12:56.563Z,-2.20
2019-01-23T08:15:28.746Z,-2.20
2019-01-23T08:17:58.141Z,-2.20
2019-01-23T08:20:27.722Z,-2.20
2019-01-23T08:22:57.409Z,-2.30
2019-01-23T08:25:26.984Z,-2.20
2019-01-23T08:27:56.570Z,-2.20
2019-01-23T08:30:26.660Z,-2.10
2019-01-23T08:32:56.197Z,-2.10
2019-01-23T08:35:27.287Z,-2.10
2019-01-23T08:37:56.921Z,-2.00
2019-01-23T08:40:26.709Z,-2.00
2019-01-23T08:42:56.339Z,-2.00
2019-01-23T08:45:25.734Z,-1.90
2019-01-23T08:47:55.113Z,-1.90
2019-01-23T08:50:30.574Z,-1.80
2019-01-23T08:53:00.043Z,-1.70
2019-01-23T08:55:29.458Z,-1.70
2019-01-23T08:57:59.186Z,-1.60
2019-01-23T09:00:28.748Z,-1.60
2019-01-23T09:02:58.331Z,-1.40
2019-01-23T09:05:27.748Z,-1.30
2019-01-23T09:07:57.566Z,-1.30
2019-01-23T09:10:27.441Z,-1.20
2019-01-23T09:12:56.850Z,-1.00
2019-01-23T09:15:26.664Z,-1.00
2019-01-23T09:17:56.060Z,-0.90
2019-01-23T09:20:25.433Z,-0.80
2019-01-23T09:22:54.831Z,-0.70
2019-01-23T09:25:24.943Z,-0.70
2019-01-23T09:27:54.637Z,-0.70
2019-01-23T09:30:29.905Z,-0.70
2019-01-23T09:33:29.850Z,-0.60
2019-01-23T09:36:36.195Z,-0.50
2019-01-23T09:39:50.689Z,-0.40
2019-01-23T09:42:56.918Z,-0.10
2019-01-23T09:46:25.485Z,0.00
2019-01-23T09:49:39.714Z,0.00
2019-01-23T09:52:45.397Z,0.00
2019-01-23T09:55:15.437Z,-0.10
2019-01-23T09:57:48.118Z,-0.30
2019-01-23T10:00:20.717Z,-0.30
2019-01-23T10:02:50.091Z,-0.10
2019-01-23T10:05:19.597Z,0.00
2019-01-23T10:07:49.047Z,0.20
2019-01-23T10:10:19.025Z,0.40
2019-01-23T10:12:48.489Z,0.50
2019-01-23T10:15:21.617Z,0.60
2019-01-23T10:17:51.024Z,0.60
2019-01-23T10:20:20.411Z,0.70
2019-01-23T10:22:49.805Z,0.80
2019-01-23T10:25:19.306Z,1.00
2019-01-23T10:27:49.273Z,1.00
2019-01-23T10:30:18.644Z,1.00
2019-01-23T10:32:48.040Z,1.00
2019-01-23T10:35:17.529Z,1.00
2019-01-23T10:37:47.027Z,1.10
2019-01-23T10:40:16.617Z,1.30
2019-01-23T10:42:46.177Z,1.40
2019-01-23T10:45:15.658Z,1.60
2019-01-23T10:47:46.130Z,2.00
2019-01-23T10:50:15.686Z,2.20
2019-01-23T10:52:45.358Z,2.10
2019-01-23T10:55:14.994Z,2.00
2019-01-23T10:57:44.561Z,2.10
2019-01-23T11:00:16.592Z,2.00
2019-01-23T11:02:45.975Z,1.90
2019-01-23T11:05:18.702Z,1.90
2019-01-23T11:07:48.091Z,2.20
2019-01-23T11:10:22.432Z,2.60
2019-01-23T11:12:51.866Z,2.80
2019-01-23T11:15:21.525Z,2.90
2019-01-23T11:17:51.153Z,3.10
2019-01-23T11:20:21.144Z,3.30
2019-01-23T11:22:50.577Z,3.30
2019-01-23T11:25:20.030Z,3.60
2019-01-23T11:27:49.572Z,3.70
2019-01-23T11:30:21.562Z,3.80
2019-01-23T11:32:51.095Z,3.90
2019-01-23T11:35:20.466Z,3.80
2019-01-23T11:37:50.262Z,3.70
2019-01-23T11:40:28.404Z,3.70
2019-01-23T11:42:57.969Z,3.60
2019-01-23T11:45:27.582Z,3.80
2019-01-23T11:47:57.067Z,3.80
2019-01-23T11:50:26.604Z,3.90
2019-01-23T11:52:56.146Z,3.80
2019-01-23T11:55:25.584Z,3.70
2019-01-23T11:57:54.977Z,3.70
2019-01-23T12:00:26.060Z,3.60
2019-01-23T12:02:55.529Z,3.70
2019-01-23T12:05:25.481Z,3.40
2019-01-23T12:07:54.966Z,3.20
2019-01-23T12:10:24.808Z,2.90
2019-01-23T12:12:54.600Z,2.80
2019-01-23T12:15:24.529Z,2.60
2019-01-23T12:17:54.010Z,2.60
2019-01-23T12:20:23.696Z,2.30
2019-01-23T12:22:53.461Z,2.20
2019-01-23T12:25:22.897Z,2.10
2019-01-23T12:27:52.280Z,2.10
2019-01-23T12:30:27.484Z,2.10
2019-01-23T12:32:56.949Z,1.90
2019-01-23T12:35:26.381Z,1.90
2019-01-23T12:37:56.104Z,1.90
2019-01-23T12:40:25.568Z,1.80
2019-01-23T12:42:55.048Z,1.70
2019-01-23T12:45:26.752Z,1.70
2019-01-23T12:47:56.619Z,1.70
2019-01-23T12:50:28.533Z,1.80
2019-01-23T12:52:57.913Z,1.80
2019-01-23T12:55:27.286Z,2.10
2019-01-23T12:57:57.132Z,2.00
2019-01-23T13:00:28.892Z,2.10
2019-01-23T13:02:58.902Z,2.20
2019-01-23T13:05:28.665Z,2.20
2019-01-23T13:07:58.344Z,2.20
2019-01-23T13:10:27.817Z,2.30
2019-01-23T13:12:57.364Z,2.30
2019-01-23T13:15:27.308Z,2.20
2019-01-23T13:17:56.913Z,2.10
2019-01-23T13:20:26.720Z,1.90
2019-01-23T13:22:56.535Z,1.80
2019-01-23T13:25:28.292Z,1.60
2019-01-23T13:28:00.079Z,1.60
2019-01-23T13:30:29.581Z,1.50
2019-01-23T13:32:59.009Z,1.40
2019-01-23T13:35:31.237Z,1.50
2019-01-23T13:38:01.244Z,1.40
2019-01-23T13:40:33.208Z,1.50
2019-01-23T13:43:02.801Z,1.50
2019-01-23T13:45:32.347Z,1.50
2019-01-23T13:48:01.780Z,1.40
2019-01-23T13:50:31.528Z,1.40
2019-01-23T13:53:00.893Z,1.50
2019-01-23T13:55:30.644Z,1.40
2019-01-23T13:58:00.091Z,1.30
2019-01-23T14:00:32.537Z,1.30
2019-01-23T14:03:02.025Z,1.30
2019-01-23T14:05:31.732Z,1.30
2019-01-23T14:08:01.094Z,1.10
2019-01-23T14:10:30.854Z,1.10
2019-01-23T14:13:00.318Z,1.10
2019-01-23T14:15:34.577Z,1.10
2019-01-23T14:18:05.381Z,1.10
2019-01-23T14:20:35.121Z,1.10
2019-01-23T14:23:05.250Z,1.00
2019-01-23T14:25:35.082Z,1.00
2019-01-23T14:28:04.789Z,0.90
2019-01-23T14:30:39.516Z,1.00
2019-01-23T14:33:08.900Z,1.00
2019-01-23T14:35:40.334Z,1.00
2019-01-23T14:38:09.813Z,0.90
2019-01-23T14:40:39.265Z,0.90
2019-01-23T14:43:08.732Z,0.80
2019-01-23T14:45:38.083Z,0.90
2019-01-23T14:48:07.528Z,0.90
2019-01-23T14:50:36.981Z,0.90
2019-01-23T14:53:06.437Z,0.90
2019-01-23T14:55:35.913Z,0.80
2019-01-23T14:58:05.604Z,0.70
2019-01-23T15:00:34.981Z,0.70
2019-01-23T15:03:04.462Z,0.70
2019-01-23T15:05:33.909Z,0.70
2019-01-23T15:08:03.366Z,0.50
2019-01-23T15:10:33.332Z,0.50
2019-01-23T15:13:03.536Z,0.40
2019-01-23T15:15:33.059Z,0.30
2019-01-23T15:18:02.545Z,0.30
2019-01-23T15:20:37.874Z,0.40
2019-01-23T15:23:08.014Z,0.30
2019-01-23T15:25:37.540Z,0.30
2019-01-23T15:28:06.963Z,0.20
2019-01-23T15:30:38.007Z,0.20
2019-01-23T15:33:07.388Z,0.20
2019-01-23T15:35:37.072Z,0.20
2019-01-23T15:38:06.465Z,0.10
2019-01-23T15:40:37.739Z,0.10
2019-01-23T15:43:07.250Z,0.10
2019-01-23T15:45:37.117Z,0.10
2019-01-23T15:48:06.579Z,0.00
2019-01-23T15:50:36.145Z,0.00
2019-01-23T15:53:05.778Z,0.00
2019-01-23T15:55:35.250Z,-0.10
2019-01-23T15:58:04.616Z,-0.10
2019-01-23T16:00:34.689Z,-0.10
2019-01-23T16:03:04.047Z,-0.10
2019-01-23T16:05:33.839Z,-0.20
2019-01-23T16:08:03.305Z,-0.20
2019-01-23T16:10:33.124Z,-0.20
2019-01-23T16:13:03.407Z,-0.20
2019-01-23T16:15:33.903Z,-0.20
2019-01-23T16:18:03.620Z,-0.20
2019-01-23T16:20:33.081Z,-0.20
2019-01-23T16:23:02.621Z,-0.20
2019-01-23T16:25:32.018Z,-0.30
2019-01-23T16:28:01.543Z,-0.30
2019-01-23T16:30:36.373Z,-0.30
2019-01-23T16:33:06.089Z,-0.30
2019-01-23T16:35:38.727Z,-0.30
2019-01-23T16:38:08.548Z,-0.40
2019-01-23T16:40:37.921Z,-0.40
2019-01-23T16:43:07.815Z,-0.50
2019-01-23T16:45:37.282Z,-0.50
2019-01-23T16:48:06.812Z,-0.50
2019-01-23T16:50:36.261Z,-0.50
2019-01-23T16:53:06.086Z,-0.50
2019-01-23T16:55:36.256Z,-0.60
2019-01-23T16:58:06.840Z,-0.60
2019-01-23T17:00:36.648Z,-0.60
2019-01-23T17:03:06.648Z,-0.70
2019-01-23T17:05:36.341Z,-0.70
2019-01-23T17:08:07.832Z,-0.70
2019-01-23T17:10:37.209Z,-0.80
2019-01-23T17:13:06.730Z,-0.90
2019-01-23T17:15:36.177Z,-0.90
2019-01-23T17:18:06.256Z,-0.90
2019-01-23T17:20:45.202Z,-0.90
2019-01-23T17:23:14.758Z,-0.90
2019-01-23T17:25:44.298Z,-0.90
2019-01-23T17:28:15.000Z,-0.90
2019-01-23T17:30:55.908Z,-1.00
2019-01-23T17:33:25.626Z,-1.00
2019-01-23T17:35:55.430Z,-1.00
2019-01-23T17:38:25.105Z,-0.90
2019-01-23T17:40:54.577Z,-1.00
2019-01-23T17:43:24.608Z,-0.90
2019-01-23T17:45:54.001Z,-1.00
2019-01-23T17:48:23.654Z,-0.90
2019-01-23T17:50:53.129Z,-1.00
2019-01-23T17:53:22.497Z,-1.00
2019-01-23T17:55:52.038Z,-1.00
2019-01-23T17:58:24.492Z,-1.00
2019-01-23T18:00:55.977Z,-1.10
2019-01-23T18:03:25.804Z,-1.10
2019-01-23T18:05:55.267Z,-1.10
2019-01-23T18:08:24.642Z,-1.10
2019-01-23T18:10:54.051Z,-1.10
2019-01-23T18:13:23.585Z,-1.10
2019-01-23T18:15:53.260Z,-1.20
2019-01-23T18:18:22.943Z,-1.20
2019-01-23T18:20:52.404Z,-1.20
2019-01-23T18:23:22.500Z,-1.20
2019-01-23T18:25:52.056Z,-1.20
2019-01-23T18:28:21.804Z,-1.20
2019-01-23T18:31:17.010Z,-1.20
2019-01-23T18:34:17.178Z,-1.20
2019-01-23T18:36:58.048Z,-1.20
2019-01-23T18:40:04.096Z,-1.20
2019-01-23T18:43:20.404Z,-1.20
2019-01-23T18:46:26.237Z,-1.20
2019-01-23T18:49:34.661Z,-1.20
2019-01-23T18:52:12.477Z,-1.20
2019-01-23T18:54:42.021Z,-1.20
2019-01-23T18:57:14.724Z,-1.20
2019-01-23T18:59:44.449Z,-1.20
2019-01-23T19:02:14.264Z,-1.20
2019-01-23T19:04:44.178Z,-1.20
2019-01-23T19:07:14.073Z,-1.30
2019-01-23T19:09:43.729Z,-1.30
2019-01-23T19:12:13.185Z,-1.30
2019-01-23T19:14:42.850Z,-1.20
2019-01-23T19:17:12.228Z,-1.30
2019-01-23T19:19:42.001Z,-1.30
2019-01-23T19:22:11.481Z,-1.30
2019-01-23T19:24:40.933Z,-1.30
2019-01-23T19:27:11.271Z,-1.30
2019-01-23T19:29:41.481Z,-1.40
2019-01-23T19:32:10.947Z,-1.40
2019-01-23T19:34:40.381Z,-1.40
2019-01-23T19:37:09.975Z,-1.40
2019-01-23T19:39:39.508Z,-1.40
2019-01-23T19:42:09.319Z,-1.40
2019-01-23T19:44:38.753Z,-1.30
2019-01-23T19:47:08.565Z,-1.40
2019-01-23T19:49:38.714Z,-1.40
2019-01-23T19:52:08.465Z,-1.30
2019-01-23T19:54:37.905Z,-1.30
2019-01-23T19:57:07.297Z,-1.30
2019-01-23T19:59:36.766Z,-1.30
2019-01-23T20:02:06.374Z,-1.40
2019-01-23T20:04:36.293Z,-1.40
2019-01-23T20:07:05.765Z,-1.40
2019-01-23T20:09:35.207Z,-1.50
2019-01-23T20:12:05.126Z,-1.50
2019-01-23T20:14:34.570Z,-1.40
2019-01-23T20:17:03.990Z,-1.40
2019-01-23T20:19:33.366Z,-1.40
2019-01-23T20:22:02.758Z,-1.50
2019-01-23T20:24:32.246Z,-1.40
2019-01-23T20:27:01.697Z,-1.40
2019-01-23T20:29:31.148Z,-1.50
2019-01-23T20:32:00.522Z,-1.50
2019-01-23T20:34:30.004Z,-1.40
2019-01-23T20:36:59.772Z,-1.50
2019-01-23T20:39:29.361Z,-1.50
2019-01-23T20:41:58.813Z,-1.60
2019-01-23T20:44:28.902Z,-1.60
2019-01-23T20:46:58.719Z,-1.60
2019-01-23T20:49:28.216Z,-1.60
2019-01-23T20:51:58.025Z,-1.60
2019-01-23T20:54:28.010Z,-1.60
2019-01-23T20:56:57.409Z,-1.60
2019-01-23T20:59:27.564Z,-1.60
2019-01-23T21:01:57.126Z,-1.60
2019-01-23T21:04:26.567Z,-1.60
2019-01-23T21:06:56.392Z,-1.60
2019-01-23T21:09:26.104Z,-1.60
2019-01-23T21:11:55.649Z,-1.60
2019-01-23T21:14:25.107Z,-1.60
2019-01-23T21:16:54.618Z,-1.70
2019-01-23T21:19:24.140Z,-1.60
2019-01-23T21:21:53.836Z,-1.60
2019-01-23T21:24:26.613Z,-1.60
2019-01-23T21:26:56.746Z,-1.70
2019-01-23T21:29:26.858Z,-1.70
2019-01-23T21:31:56.334Z,-1.70
2019-01-23T21:34:26.036Z,-1.70
2019-01-23T21:36:55.430Z,-1.70
2019-01-23T21:39:24.892Z,-1.70
2019-01-23T21:41:54.665Z,-1.70
2019-01-23T21:44:24.117Z,-1.70
2019-01-23T21:46:53.494Z,-1.70
2019-01-23T21:49:22.993Z,-1.70
2019-01-23T21:51:52.425Z,-1.70
2019-01-23T21:54:21.889Z,-1.70
2019-01-23T21:56:51.327Z,-1.70
2019-01-23T21:59:20.726Z,-1.70
2019-01-23T22:01:50.177Z,-1.60
2019-01-23T22:04:19.661Z,-1.60
2019-01-23T22:06:49.140Z,-1.60
2019-01-23T22:09:18.525Z,-1.60
2019-01-23T22:11:47.898Z,-1.60
2019-01-23T22:14:17.362Z,-1.70
2019-01-23T22:16:46.803Z,-1.70
2019-01-23T22:19:16.278Z,-1.70
2019-01-23T22:21:45.661Z,-1.70
2019-01-23T22:24:15.120Z,-1.80
2019-01-23T22:26:44.490Z,-1.70
2019-01-23T22:29:14.278Z,-1.70
2019-01-23T22:31:43.736Z,-1.70
2019-01-23T22:34:13.596Z,-1.60
2019-01-23T22:36:43.576Z,-1.70
2019-01-23T22:39:13.069Z,-1.70
2019-01-23T22:41:42.533Z,-1.70
2019-01-23T22:44:12.226Z,-1.70
2019-01-23T22:46:41.613Z,-1.70
2019-01-23T22:49:10.982Z,-1.80
2019-01-23T22:51:40.483Z,-1.80
2019-01-23T22:54:09.911Z,-1.90
2019-01-23T22:56:39.377Z,-1.90
2019-01-23T22:59:08.864Z,-1.90
2019-01-23T23:01:38.329Z,-1.90
2019-01-23T23:04:07.698Z,-1.90
2019-01-23T23:06:37.165Z,-1.80
2019-01-23T23:09:10.081Z,-1.80
2019-01-23T23:11:39.581Z,-1.90
2019-01-23T23:14:09.393Z,-1.90
2019-01-23T23:16:38.857Z,-2.00
2019-01-23T23:19:08.226Z,-2.00
2019-01-23T23:21:37.625Z,-2.10
2019-01-23T23:24:07.100Z,-2.00
2019-01-23T23:26:36.588Z,-2.00
2019-01-23T23:29:06.258Z,-2.10
2019-01-23T23:31:35.722Z,-2.10
2019-01-23T23:34:09.926Z,-2.10
2019-01-23T23:36:36.695Z,-2.10
2019-01-23T23:39:09.307Z,-2.10
2019-01-23T23:41:38.770Z,-2.10
2019-01-23T23:44:08.475Z,-2.00
2019-01-23T23:46:38.263Z,-2.10
2019-01-23T23:49:08.096Z,-2.00
2019-01-23T23:51:37.882Z,-2.10
2019-01-23T23:54:07.423Z,-2.10
2019-01-23T23:56:36.793Z,-2.10
2019-01-23T23:59:06.525Z,-2.10
